Time;durP1;ratioP1;P1;durP2;ratioP2;P2;SDS_P1;SDS_P2;PMS_P1;PMS_P2;Temp;Humidity;BMP_temperature;BMP_pressure;BME280_temperature;BME280_humidity;BME280_pressure;Samples;Min_cycle;Max_cycle;Signal;HPM_P1;HPM_P2
2023/06/12 04:01:09;;;;;;;2.67;2.58;;;;;;;;;;4993933;28;20229;-71
2023/06/12 04:03:38;;;;;;;3.22;3.13;;;;;;;;;;4994641;28;20226;-71
2023/06/12 04:06:05;;;;;;;3.30;3.17;;;;;;;;;;4993358;28;20566;-71
2023/06/12 04:08:33;;;;;;;3.22;3.08;;;;;;;;;;4993777;28;20258;-71
2023/06/12 04:11:02;;;;;;;3.05;2.95;;;;;;;;;;5024508;22;20253;-66
2023/06/12 04:13:29;;;;;;;3.22;3.13;;;;;;;;;;5013720;28;20198;-66
2023/06/12 04:15:57;;;;;;;3.30;3.20;;;;;;;;;;5016761;28;20689;-66
2023/06/12 04:18:25;;;;;;;3.30;3.20;;;;;;;;;;5017007;28;20201;-68
2023/06/12 04:20:54;;;;;;;2.88;2.78;;;;;;;;;;5016493;28;20236;-69
2023/06/12 04:23:22;;;;;;;3.67;3.47;;;;;;;;;;5016545;28;20232;-69
2023/06/12 04:25:50;;;;;;;2.95;2.75;;;;;;;;;;5016737;28;20206;-68
2023/06/12 04:28:21;;;;;;;3.17;3.00;;;;;;;;;;5016532;28;20197;-68
2023/06/12 04:30:49;;;;;;;2.92;2.80;;;;;;;;;;5016659;28;20221;-68
2023/06/12 04:33:17;;;;;;;2.58;2.47;;;;;;;;;;5016596;28;20198;-69
2023/06/12 04:35:46;;;;;;;2.85;2.75;;;;;;;;;;5016716;28;20234;-71
2023/06/12 04:38:13;;;;;;;2.97;2.80;;;;;;;;;;5016958;28;20229;-72
2023/06/12 04:40:41;;;;;;;2.72;2.63;;;;;;;;;;5016723;28;20569;-73
2023/06/12 04:43:09;;;;;;;3.03;2.83;;;;;;;;;;5016265;28;20208;-72
2023/06/12 04:45:36;;;;;;;2.75;2.60;;;;;;;;;;5017714;28;20571;-70
2023/06/12 04:48:03;;;;;;;2.60;2.50;;;;;;;;;;5016486;28;20262;-70
2023/06/12 04:50:31;;;;;;;3.30;3.10;;;;;;;;;;5016826;28;20217;-69
2023/06/12 04:53:00;;;;;;;2.50;2.40;;;;;;;;;;5016176;28;20205;-70
2023/06/12 04:55:28;;;;;;;2.58;2.47;;;;;;;;;;5016320;28;20280;-68
2023/06/12 04:57:55;;;;;;;2.03;2.03;;;;;;;;;;5016257;28;20200;-68
2023/06/12 05:00:22;;;;;;;2.50;2.40;;;;;;;;;;5016116;28;20304;-69
2023/06/12 05:02:50;;;;;;;3.17;2.92;;;;;;;;;;5016031;28;20217;-69
2023/06/12 05:05:19;;;;;;;2.65;2.55;;;;;;;;;;5016078;28;20316;-69
2023/06/12 05:07:47;;;;;;;2.92;2.83;;;;;;;;;;5016084;28;20296;-69
2023/06/12 05:10:15;;;;;;;2.50;2.40;;;;;;;;;;5015879;28;20260;-69
2023/06/12 05:12:42;;;;;;;3.42;2.88;;;;;;;;;;5015970;28;20197;-69
2023/06/12 05:15:10;;;;;;;2.60;2.50;;;;;;;;;;5016084;28;20200;-70
2023/06/12 05:17:37;;;;;;;2.90;2.70;;;;;;;;;;5016689;28;20628;-69
2023/06/12 05:20:08;;;;;;;3.55;2.97;;;;;;;;;;5015854;28;20206;-69
2023/06/12 05:22:35;;;;;;;2.85;2.60;;;;;;;;;;5015938;28;20186;-70
2023/06/12 05:25:03;;;;;;;2.50;2.40;;;;;;;;;;5016284;28;20260;-70
2023/06/12 05:27:32;;;;;;;2.97;2.78;;;;;;;;;;5015049;28;20605;-70
2023/06/12 05:29:59;;;;;;;2.72;2.63;;;;;;;;;;5015561;28;20205;-70
2023/06/12 05:32:26;;;;;;;3.00;2.80;;;;;;;;;;5015468;28;20232;-70
2023/06/12 05:34:53;;;;;;;2.80;2.60;;;;;;;;;;5015142;28;20708;-70
2023/06/12 05:37:20;;;;;;;2.80;2.60;;;;;;;;;;5015431;28;20201;-70
2023/06/12 05:39:47;;;;;;;2.53;2.42;;;;;;;;;;5015386;28;20210;-70
2023/06/12 05:42:15;;;;;;;4.20;2.92;;;;;;;;;;5015298;28;20225;-70
2023/06/12 05:44:43;;;;;;;2.58;2.40;;;;;;;;;;5015145;28;20242;-70
2023/06/12 05:47:10;;;;;;;2.67;2.53;;;;;;;;;;5014925;28;20665;-70
2023/06/12 05:49:37;;;;;;;2.58;2.47;;;;;;;;;;5014909;28;20547;-69
2023/06/12 05:52:05;;;;;;;2.95;2.75;;;;;;;;;;5014745;28;20224;-70
2023/06/12 05:54:32;;;;;;;2.83;2.60;;;;;;;;;;5015193;28;20200;-69
2023/06/12 05:56:59;;;;;;;2.63;2.53;;;;;;;;;;5014976;28;20202;-69
2023/06/12 05:59:26;;;;;;;2.72;2.50;;;;;;;;;;5014669;28;20673;-70
2023/06/12 06:01:56;;;;;;;2.75;2.55;;;;;;;;;;5014817;28;20221;-70
2023/06/12 06:04:23;;;;;;;2.70;2.40;;;;;;;;;;5014946;28;20222;-70
2023/06/12 06:06:52;;;;;;;3.17;2.88;;;;;;;;;;5014843;28;20225;-70
2023/06/12 06:09:19;;;;;;;3.10;2.90;;;;;;;;;;5014909;28;20205;-70
2023/06/12 06:11:46;;;;;;;2.72;2.63;;;;;;;;;;5014397;28;20237;-70
2023/06/12 06:14:13;;;;;;;2.00;1.95;;;;;;;;;;5015032;28;20213;-70
2023/06/12 06:16:40;;;;;;;2.17;2.17;;;;;;;;;;5014692;28;20209;-70
2023/06/12 06:19:09;;;;;;;2.50;2.40;;;;;;;;;;5014512;28;20571;-72
2023/06/12 06:21:36;;;;;;;2.20;2.10;;;;;;;;;;5014777;28;20225;-70
2023/06/12 06:24:03;;;;;;;2.60;2.50;;;;;;;;;;5014464;28;20228;-70
2023/06/12 06:26:31;;;;;;;2.63;2.53;;;;;;;;;;5014586;28;20206;-70
2023/06/12 06:28:58;;;;;;;2.65;2.55;;;;;;;;;;5014510;28;20190;-70
2023/06/12 06:31:27;;;;;;;2.00;2.00;;;;;;;;;;5014803;28;20221;-70
2023/06/12 06:33:53;;;;;;;2.50;2.40;;;10.10;99.90;;;;;;5014600;28;20208;-70
2023/06/12 06:36:23;;;;;;;1.83;1.83;;;34.90;29.80;;;;;;5014844;28;20209;-70
2023/06/12 06:38:49;;;;;;;2.30;2.20;;;34.10;29.90;;;;;;5014727;28;20224;-71
2023/06/12 06:41:16;;;;;;;3.10;2.38;;;34.30;30.30;;;;;;5014522;28;20221;-71
2023/06/12 06:43:43;;;;;;;3.78;2.13;;;33.60;29.70;;;;;;5014481;28;20212;-70
2023/06/12 06:46:09;;;;;;;2.30;2.30;;;33.40;29.90;;;;;;5013960;28;20549;-70
2023/06/12 06:48:36;;;;;;;2.30;2.10;;;33.10;30.50;;;;;;5014204;28;20224;-70
2023/06/12 06:51:03;;;;;;;2.45;2.40;;;33.60;31.40;;;;;;5014308;28;20218;-70
2023/06/12 06:53:31;;;;;;;2.40;2.30;;;34.60;30.50;;;;;;5014319;28;20202;-70
2023/06/12 06:55:59;;;;;;;2.10;2.00;;;35.40;29.70;;;;;;5014134;28;20235;-70
2023/06/12 06:58:26;;;;;;;2.08;2.05;;;36.20;28.40;;;;;;5014117;28;20211;-70
2023/06/12 07:00:53;;;;;;;2.20;2.10;;;36.30;28.00;;;;;;5013801;28;20225;-70
2023/06/12 07:03:19;;;;;;;2.20;2.10;;;36.10;28.30;;;;;;5014811;28;20205;-70
2023/06/12 07:05:46;;;;;;;2.05;2.00;;;35.70;28.20;;;;;;5013960;28;20225;-70
2023/06/12 07:08:13;;;;;;;2.03;1.92;;;35.20;29.80;;;;;;5013948;28;20202;-70
2023/06/12 07:10:41;;;;;;;2.22;2.13;;;35.30;28.50;;;;;;5013636;28;20233;-70
2023/06/12 07:13:07;;;;;;;2.05;2.05;;;35.00;29.10;;;;;;5013728;28;20210;-70
2023/06/12 07:15:34;;;;;;;2.47;2.25;;;35.10;28.30;;;;;;5013525;28;20695;-70
2023/06/12 07:18:01;;;;;;;2.10;2.10;;;34.50;28.60;;;;;;5013830;28;20201;-70
2023/06/12 07:20:27;;;;;;;2.03;1.92;;;34.90;29.00;;;;;;5013699;28;20204;-70
2023/06/12 07:22:54;;;;;;;1.85;1.80;;;35.60;27.60;;;;;;5013527;28;20204;-70
2023/06/12 07:25:21;;;;;;;1.98;1.95;;;;;;;;;;5013747;28;20333;-70
2023/06/12 07:27:49;;;;;;;2.10;2.00;;;;;;;;;;5013802;28;20209;-70
2023/06/12 07:30:17;;;;;;;2.30;2.10;;;;;;;;;;5013231;28;20669;-70
2023/06/12 07:32:44;;;;;;;2.20;2.00;;;;;;;;;;5013440;28;20208;-70
2023/06/12 07:35:11;;;;;;;2.30;2.20;;;;;;;;;;5013639;28;20197;-70
2023/06/12 07:37:38;;;;;;;2.45;2.30;;;;;;;;;;5013551;28;20208;-69
2023/06/12 07:40:07;;;;;;;2.45;2.20;;;;;;;;;;5013350;28;20681;-70
2023/06/12 07:42:35;;;;;;;1.88;1.83;;;;;;;;;;5013631;28;20208;-70
2023/06/12 07:45:04;;;;;;;1.85;1.80;;;;;;;;;;5013509;28;20316;-70
2023/06/12 07:47:31;;;;;;;4.25;1.83;;;;;;;;;;5013546;28;20204;-70
2023/06/12 07:49:59;;;;;;;2.35;2.00;;;;;;;;;;5015456;28;20708;-70
2023/06/12 07:52:26;;;;;;;2.28;2.13;;;;;;;;;;5018410;28;20236;-70
2023/06/12 07:54:53;;;;;;;1.88;1.88;;;;;;;;;;5017382;28;20213;-70
2023/06/12 07:57:21;;;;;;;2.30;2.20;;;;;;;;;;5017384;28;20202;-70
2023/06/12 07:59:48;;;;;;;2.20;2.10;;;;;;;;;;5017265;28;20228;-70
2023/06/12 08:02:17;;;;;;;2.05;1.95;;;;;;;;;;5017211;28;20221;-70
2023/06/12 08:04:44;;;;;;;1.90;1.90;;;;;;;;;;5017118;28;20229;-70
2023/06/12 08:07:12;;;;;;;2.38;2.17;;;;;;;;;;5017188;28;20205;-70
2023/06/12 08:09:40;;;;;;;3.50;2.28;;;;;;;;;;5016862;28;20202;-70
2023/06/12 08:12:07;;;;;;;2.10;2.00;;;;;;;;;;5016608;28;20601;-70
2023/06/12 08:14:35;;;;;;;2.40;2.30;;;;;;;;;;5016653;28;20719;-70
2023/06/12 08:17:02;;;;;;;2.40;2.30;;;;;;;;;;5016631;28;20209;-70
2023/06/12 08:19:32;;;;;;;2.28;2.08;;;;;;;;;;5016862;28;20228;-70
2023/06/12 08:21:59;;;;;;;3.00;2.80;;;;;;;;;;5016897;28;20328;-70
2023/06/12 08:24:29;;;;;;;2.30;2.20;;;;;;;;;;5016799;28;20198;-70
2023/06/12 08:26:56;;;;;;;2.53;2.53;;;;;;;;;;5017592;28;20260;-70
2023/06/12 08:29:23;;;;;;;3.75;2.80;;;;;;;;;;5016727;28;20205;-70
2023/06/12 08:31:50;;;;;;;2.50;2.40;;;;;;;;;;5016648;28;20225;-70
2023/06/12 08:34:17;;;;;;;3.30;2.53;;;;;;;;;;5016761;28;20205;-70
2023/06/12 08:36:46;;;;;;;3.67;2.63;;;;;;;;;;5016640;28;20289;-70
2023/06/12 08:39:13;;;;;;;2.70;2.60;;;;;;;;;;5016584;28;20572;-69
2023/06/12 08:41:42;;;;;;;2.70;2.60;;;;;;;;;;5016535;28;20225;-69
2023/06/12 08:44:10;;;;;;;4.85;2.60;;;;;;;;;;5016144;28;20201;-69
2023/06/12 08:46:37;;;;;;;3.78;3.42;;;;;;;;;;5016327;28;20217;-70
2023/06/12 08:49:04;;;;;;;2.72;2.50;;;;;;;;;;5016428;28;20205;-70
2023/06/12 08:51:32;;;;;;;2.63;2.42;;;;;;;;;;5016294;28;20221;-70
2023/06/12 08:54:01;;;;;;;2.97;2.78;;;;;;;;;;5016312;28;20259;-70
2023/06/12 08:56:29;;;;;;;2.95;2.75;;;;;;;;;;5016316;28;20202;-70
2023/06/12 08:58:57;;;;;;;2.60;2.50;;;;;;;;;;5016252;28;20206;-70
2023/06/12 09:01:28;;;;;;;2.83;2.72;;;;;;;;;;5014691;28;20236;-70
2023/06/12 09:03:58;;;;;;;2.80;2.70;;;;;;;;;;5016114;28;20190;-69
2023/06/12 09:06:26;;;;;;;2.95;2.75;;;;;;;;;;5016016;28;20206;-69
2023/06/12 09:08:53;;;;;;;2.90;2.70;;;;;;;;;;5015970;28;20288;-70
2023/06/12 09:11:21;;;;;;;3.28;3.00;;;;;;;;;;5015604;28;20229;-70
2023/06/12 09:13:52;;;;;;;2.83;2.72;;;;;;;;;;5015652;28;20205;-70
2023/06/12 09:16:19;;;;;;;3.33;3.03;;;;;;;;;;5015655;28;20209;-69
2023/06/12 09:18:49;;;;;;;2.60;2.50;;;;;;;;;;5015799;28;20201;-68
2023/06/12 09:21:16;;;;;;;9.85;3.40;;;;;;;;;;5015385;28;20473;-69
2023/06/12 09:23:45;;;;;;;2.47;2.38;;;;;;;;;;5015351;28;20723;-69
2023/06/12 09:26:15;;;;;;;2.80;2.65;;;;;;;;;;5015530;28;20577;-69
2023/06/12 09:28:44;;;;;;;3.30;2.50;;;;;;;;;;5015593;28;20204;-68
2023/06/12 09:31:11;;;;;;;2.97;2.85;;;;;;;;;;5015503;28;20256;-69
2023/06/12 09:33:40;;;;;;;2.47;2.38;;;;;;;;;;5015489;28;20202;-69
2023/06/12 09:36:07;;;;;;;3.08;2.92;;;;;;;;;;5015436;28;20230;-69
2023/06/12 09:38:34;;;;;;;4.03;3.10;;;;;;;;;;5015363;28;20213;-69
2023/06/12 09:41:03;;;;;;;3.03;2.85;;;;;;;;;;5015319;28;20218;-69
2023/06/12 09:43:31;;;;;;;2.97;2.78;;;;;;;;;;5015084;28;20693;-69
2023/06/12 09:45:59;;;;;;;2.75;2.53;;;;;;;;;;5015149;28;20252;-69
2023/06/12 09:48:32;;;;;;;3.80;3.17;;;;;;;;;;5014970;28;20236;-69
2023/06/12 09:51:00;;;;;;;3.85;3.03;;;;;;;;;;5015782;28;20226;-69
2023/06/12 09:53:29;;;;;;;5.43;2.80;;;;;;;;;;5014861;28;20665;-69
2023/06/12 09:55:56;;;;;;;2.72;2.63;;;;;;;;;;5014950;28;20603;-69
2023/06/12 09:58:24;;;;;;;6.05;3.05;;;;;;;;;;5015001;28;20267;-69
2023/06/12 10:00:55;;;;;;;3.22;2.75;;;;;;;;;;5014920;28;20272;-69
2023/06/12 10:03:26;;;;;;;3.13;2.92;;;;;;;;;;5015398;28;20280;-69
2023/06/12 10:05:54;;;;;;;2.85;2.60;;;;;;;;;;5015098;28;20217;-69
2023/06/12 10:08:21;;;;;;;3.65;3.00;;;;;;;;;;5014785;28;20661;-69
2023/06/12 10:10:49;;;;;;;3.00;2.90;;;;;;;;;;5015238;28;20279;-70
2023/06/12 10:13:16;;;;;;;3.03;2.83;;;;;;;;;;5014611;28;20190;-70
2023/06/12 10:15:43;;;;;;;3.55;3.35;;;;;;;;;;5014783;28;20684;-72
2023/06/12 10:18:10;;;;;;;3.45;3.17;;;;;;;;;;5014825;28;20229;-72
2023/06/12 10:20:39;;;;;;;2.95;2.80;;;;;;;;;;5014938;28;20226;-72
2023/06/12 10:23:07;;;;;;;3.50;3.13;;;;;;;;;;5014602;28;20212;-71
2023/06/12 10:25:34;;;;;;;3.33;3.13;;;;;;;;;;5014228;28;20700;-71
2023/06/12 10:28:02;;;;;;;3.47;3.20;;;;;;;;;;5014662;28;20229;-71
2023/06/12 10:30:29;;;;;;;3.33;3.13;;;;;;;;;;5014513;28;20661;-71
2023/06/12 10:32:56;;;;;;;3.30;3.00;;;;;;;;;;5014553;28;20208;-71
2023/06/12 10:35:30;;;;;;;3.90;3.60;;;;;;;;;;5014101;28;20665;-71
2023/06/12 10:37:59;;;;;;;3.20;2.90;;;;;;;;;;5014690;28;20240;-71
2023/06/12 10:40:26;;;;;;;2.90;2.70;;;;;;;;;;5014250;28;20201;-71
2023/06/12 10:43:01;;;;;;;3.03;2.83;;;;;;;;;;5014157;28;20201;-71
2023/06/12 10:45:29;;;;;;;3.28;3.08;;;;;;;;;;5014211;28;20205;-71
2023/06/12 10:48:20;;;;;;;3.30;3.10;;;;;;;;;;5014040;28;20647;-71
2023/06/12 10:50:52;;;;;;;3.35;3.15;;;;;;;;;;5014073;28;20229;-71
2023/06/12 10:53:25;;;;;;;2.97;2.85;;;;;;;;;;5014141;28;20208;-71
2023/06/12 10:55:56;;;;;;;2.78;2.67;;;;;;;;;;5014295;28;20604;-72
2023/06/12 10:58:25;;;;;;;2.83;2.72;;;;;;;;;;5014230;28;20209;-72
2023/06/12 11:00:53;;;;;;;3.28;3.08;;;;;;;;;;5013765;28;20252;-72
2023/06/12 11:03:25;;;;;;;3.08;2.78;;;;;;;;;;5013540;28;20661;-72
2023/06/12 11:05:54;;;;;;;4.10;3.15;;;;;;;;;;5014063;28;20206;-72
2023/06/12 11:08:23;;;;;;;3.33;2.92;;;;;;;;;;5013899;28;20583;-71
2023/06/12 11:10:51;;;;;;;3.40;3.13;;;;;;;;;;5013399;28;20240;-71
2023/06/12 11:13:18;;;;;;;2.65;2.53;;;;;;;;;;5013696;28;20607;-72
2023/06/12 11:15:46;;;;;;;2.85;2.65;;;;;;;;;;5013834;28;20205;-72
2023/06/12 11:18:14;;;;;;;3.13;2.83;;;;;;;;;;5013773;28;20197;-72
2023/06/12 11:20:41;;;;;;;2.47;2.38;;;;;;;;;;5013766;28;20229;-72
2023/06/12 11:23:08;;;;;;;4.70;3.08;;;;;;;;;;5014456;28;20197;-73
2023/06/12 11:25:35;;;;;;;3.42;3.20;;;;;;;;;;5016380;28;20285;-72
2023/06/12 11:28:07;;;;;;;2.63;2.53;;;;;;;;;;5018086;28;20209;-73
2023/06/12 11:30:34;;;;;;;2.85;2.75;;;;;;;;;;5017773;28;20245;-71
2023/06/12 11:33:07;;;;;;;2.65;2.13;;;;;;;;;;5017892;28;20202;-71
2023/06/12 11:35:39;;;;;;;3.63;2.78;;;;;;;;;;5018782;28;20225;-71
2023/06/12 11:38:07;;;;;;;3.60;3.38;;;;;;;;;;5018087;28;20182;-71
2023/06/12 11:40:34;;;;;;;3.17;2.97;;;;;;;;;;5017690;28;20221;-71
2023/06/12 11:43:01;;;;;;;2.97;2.88;;;;;;;;;;5018149;28;20202;-71
2023/06/12 11:45:31;;;;;;;3.38;3.00;;;35.70;28.10;;;;;;5018041;28;20201;-71
2023/06/12 11:48:00;;;;;;;3.25;2.92;;;23.00;35.90;;;;;;5013868;28;20266;-71
2023/06/12 11:50:28;;;;;;;4.57;3.00;;;22.80;34.40;;;;;;5013310;28;20292;-69
2023/06/12 11:52:55;;;;;;;2.75;2.65;;;22.70;34.90;;;;;;5013729;28;20206;-70
2023/06/12 11:55:23;;;;;;;3.33;3.03;;;;;;;;;;5013531;28;20236;-70
2023/06/12 11:57:51;;;;;;;3.20;2.92;;;;;;;;;;5013525;28;20229;-71
2023/06/12 12:00:19;;;;;;;2.83;2.72;;;;;;;;;;5013412;28;20240;-69
2023/06/12 12:02:51;;;;;;;3.00;2.90;;;;;;;;;;5013207;28;20206;-70
2023/06/12 12:05:20;;;;;;;4.90;3.35;;;;;;;;;;5013383;28;20277;-70
2023/06/12 12:07:52;;;;;;;3.30;3.08;;;;;;;;;;5013302;28;20234;-70
2023/06/12 12:10:19;;;;;;;3.47;3.28;;;;;;;;;;5013224;28;20190;-69
2023/06/12 12:12:48;;;;;;;2.85;2.75;;;;;;;;;;5013442;28;20240;-70
2023/06/12 12:15:16;;;;;;;3.42;2.92;;;;;;;;;;5013283;28;20616;-69
2023/06/12 12:17:44;;;;;;;6.72;2.78;;;;;;;;;;5013509;28;20205;-69
2023/06/12 12:20:17;;;;;;;3.40;3.13;;;;;;;;;;5013188;28;20557;-69
2023/06/12 12:22:44;;;;;;;3.08;2.88;;;;;;;;;;5013363;28;20205;-69
2023/06/12 12:25:15;;;;;;;3.38;2.92;;;;;;;;;;5013269;28;20201;-69
2023/06/12 12:27:44;;;;;;;2.70;2.60;;;;;;;;;;5013223;28;20206;-69
2023/06/12 12:30:14;;;;;;;8.00;3.25;;;;;;;;;;5012848;28;20719;-69
2023/06/12 12:32:41;;;;;;;3.53;3.25;;;;;;;;;;5013100;28;20623;-69
2023/06/12 12:35:09;;;;;;;3.45;3.25;;;;;;;;;;5013940;28;20201;-69
2023/06/12 12:37:37;;;;;;;3.60;3.40;;;;;;;;;;5016894;28;20201;-69
2023/06/12 12:40:09;;;;;;;3.47;3.25;;;;;;;;;;5016617;28;20198;-69
2023/06/12 12:42:36;;;;;;;4.40;4.10;;;;;;;;;;5016700;28;20272;-69
2023/06/12 12:45:03;;;;;;;3.08;2.88;;;;;;;;;;5016766;28;20201;-69
2023/06/12 12:47:30;;;;;;;3.30;2.90;;;;;;;;;;5016592;28;20217;-69
2023/06/12 12:49:58;;;;;;;3.10;2.90;;;;;;;;;;5016519;28;20263;-67
2023/06/12 12:52:25;;;;;;;3.20;3.00;;;;;;;;;;5016325;28;20312;-66
2023/06/12 12:54:54;;;;;;;2.90;2.70;;;;;;;;;;5016295;28;20226;-67
2023/06/12 12:57:21;;;;;;;3.53;3.22;;;;;;;;;;5016377;28;20239;-66
2023/06/12 12:59:49;;;;;;;3.03;2.80;;;;;;;;;;5016249;28;20205;-67
2023/06/12 13:02:16;;;;;;;3.25;3.10;;;;;;;;;;5016813;28;20229;-66
2023/06/12 13:04:43;;;;;;;3.05;2.85;;;;;;;;;;5016193;28;20224;-66
2023/06/12 13:07:10;;;;;;;3.13;3.03;;;;;;;;;;5016082;28;20308;-66
2023/06/12 13:09:37;;;;;;;4.20;3.60;;;;;;;;;;5015596;28;20672;-67
2023/06/12 13:12:06;;;;;;;3.65;3.22;;;;;;;;;;5015626;28;20233;-69
2023/06/12 13:14:33;;;;;;;3.70;3.40;;;;;;;;;;5015986;28;20296;-65
2023/06/12 13:17:00;;;;;;;3.42;3.20;;;;;;;;;;5015551;28;20588;-66
2023/06/12 13:19:28;;;;;;;3.10;2.97;;;;;;;;;;5015852;28;20201;-66
2023/06/12 13:21:55;;;;;;;3.70;3.40;;;;;;;;;;5015448;28;20659;-66
2023/06/12 13:24:22;;;;;;;4.40;3.85;;;;;;;;;;5015688;28;20202;-66
2023/06/12 13:26:49;;;;;;;3.70;3.08;;;;;;;;;;5015246;28;20580;-67
2023/06/12 13:29:18;;;;;;;2.90;2.70;;;;;;;;;;5015644;28;20201;-69
2023/06/12 13:31:45;;;;;;;3.28;3.08;;;;;;;;;;5016362;28;20245;-69
2023/06/12 13:34:12;;;;;;;3.20;3.00;;;;;;;;;;5015629;28;20206;-69
2023/06/12 13:36:39;;;;;;;3.38;3.00;;;;;;;;;;5015586;28;20205;-69
2023/06/12 13:39:06;;;;;;;3.08;2.83;;;;;;;;;;5015340;28;20201;-69
2023/06/12 13:41:33;;;;;;;2.78;2.65;;;;;;;;;;5018513;28;20219;-69
2023/06/12 13:44:01;;;;;;;2.80;2.60;;;;;;;;;;5020744;28;20673;-69
2023/06/12 13:46:30;;;;;;;2.55;2.45;;;;;;;;;;5019281;28;20228;-69
2023/06/12 13:48:58;;;;;;;6.90;2.88;;;;;;;;;;5020285;28;20206;-69
2023/06/12 13:51:25;;;;;;;4.93;3.40;;;;;;;;;;5019404;28;20227;-68
2023/06/12 13:53:54;;;;;;;3.70;3.38;;;;;;;;;;5019878;28;20201;-69
2023/06/12 13:56:22;;;;;;;4.47;3.40;;;;;;;;;;5019749;28;20284;-69
2023/06/12 13:58:49;;;;;;;3.38;3.17;;;;;;;;;;5019459;28;20217;-70
2023/06/12 14:01:17;;;;;;;4.30;2.85;;;;;;;;;;5019714;28;20232;-70
2023/06/12 14:03:45;;;;;;;3.40;3.10;;;;;;;;;;5019444;28;20212;-70
2023/06/12 14:06:13;;;;;;;3.17;2.97;;;;;;;;;;5019625;28;20688;-70
2023/06/12 14:08:41;;;;;;;3.05;2.90;;;;;;;;;;5019633;28;20196;-70
2023/06/12 14:11:08;;;;;;;3.30;3.00;;;;;;;;;;5019156;28;20595;-71
2023/06/12 14:13:36;;;;;;;2.83;2.72;;;;;;;;;;5019474;28;20201;-68
2023/06/12 14:16:03;;;;;;;2.85;2.65;;;;;;;;;;5019556;28;20580;-69
2023/06/12 14:18:31;;;;;;;3.15;2.95;;;;;;;;;;5020021;28;20224;-69
2023/06/12 14:21:01;;;;;;;3.03;2.80;;;;;;;;;;5019512;28;20273;-70
2023/06/12 14:23:29;;;;;;;3.10;2.90;;;;;;;;;;5019477;28;20699;-70
2023/06/12 14:25:56;;;;;;;3.45;3.25;;;;;;;;;;5019391;28;20680;-70
2023/06/12 14:28:23;;;;;;;4.47;3.15;;;;;;;;;;5018374;28;20580;-71
2023/06/12 14:30:51;;;;;;;2.85;2.70;;;;;;;;;;5018421;28;20269;-70
2023/06/12 14:33:18;;;;;;;2.67;2.58;;;;;;;;;;5018432;28;20241;-70
2023/06/12 14:35:46;;;;;;;2.90;2.80;;;;;;;;;;5015331;28;20197;-70
2023/06/12 14:38:14;;;;;;;5.13;2.97;;;;;;;;;;5014190;28;20202;-69
2023/06/12 14:40:41;;;;;;;4.25;3.15;;;;;;;;;;5014486;28;20279;-70
2023/06/12 14:43:08;;;;;;;3.42;3.10;;;;;;;;;;5014426;28;20209;-70
2023/06/12 14:45:35;;;;;;;3.70;3.28;;;;;;;;;;5014444;28;20211;-70
2023/06/12 14:48:02;;;;;;;4.35;3.00;;;;;;;;;;5014356;28;20221;-70
2023/06/12 14:50:29;;;;;;;2.65;2.55;;;;;;;;;;5014090;28;20182;-69
2023/06/12 14:52:56;;;;;;;3.63;2.88;;;;;;;;;;5014361;28;20212;-70
2023/06/12 14:55:25;;;;;;;3.53;3.28;;;;;;;;;;5013933;28;20206;-69
2023/06/12 14:57:52;;;;;;;3.22;3.03;;;;;;;;;;5014138;28;20661;-70
2023/06/12 15:00:19;;;;;;;2.83;2.72;;;;;;;;;;5014082;28;20225;-69
2023/06/12 15:02:46;;;;;;;3.25;3.05;;;;;;;;;;5014061;28;20224;-69
2023/06/12 15:05:13;;;;;;;4.03;3.33;;;;;;;;;;5013743;28;20542;-70
2023/06/12 15:07:40;;;;;;;3.38;3.17;;;;;;;;;;5013707;28;20673;-69
2023/06/12 15:10:08;;;;;;;3.35;3.15;;;;;;;;;;5013733;28;20205;-69
2023/06/12 15:12:36;;;;;;;3.90;3.60;;;;;;;;;;5013920;28;20264;-69
2023/06/12 15:15:04;;;;;;;3.25;3.03;;;;;;;;;;5014040;28;20209;-68
2023/06/12 15:17:31;;;;;;;3.30;3.03;;;;;;;;;;5013907;28;20209;-68
2023/06/12 15:19:58;;;;;;;3.20;2.90;;;;;;;;;;5014041;28;20205;-68
2023/06/12 15:22:25;;;;;;;3.65;3.45;;;;;;;;;;5013573;28;20221;-69
2023/06/12 15:24:52;;;;;;;3.92;3.63;;;;;;;;;;5013989;28;20234;-69
2023/06/12 15:27:19;;;;;;;4.07;3.72;;;;;;;;;;5013701;28;20233;-69
2023/06/12 15:29:47;;;;;;;3.53;3.20;;;;;;;;;;5014103;28;20205;-68
2023/06/12 15:32:14;;;;;;;3.47;3.28;;;;;;;;;;5013452;28;20708;-68
2023/06/12 15:34:43;;;;;;;3.20;3.00;;;;;;;;;;5014383;28;20197;-68
2023/06/12 15:37:15;;;;;;;4.05;3.50;;;;;;;;;;5013858;28;20197;-70
2023/06/12 15:39:45;;;;;;;3.83;3.55;;;;;;;;;;5014131;28;20190;-69
2023/06/12 15:42:12;;;;;;;6.28;3.70;;;;;;;;;;5013884;28;20264;-69
2023/06/12 15:44:39;;;;;;;3.88;3.60;;;;;;;;;;5013812;28;20255;-69
2023/06/12 15:47:08;;;;;;;4.50;3.78;;;;;;;;;;5013520;28;20735;-70
2023/06/12 15:49:35;;;;;;;3.65;3.38;;;;;;;;;;5013722;28;20197;-70
2023/06/12 15:52:02;;;;;;;3.72;3.53;;;;;;;;;;5013627;28;20248;-69
2023/06/12 15:54:29;;;;;;;4.53;4.22;;;;;;;;;;5013628;28;20292;-69
2023/06/12 15:56:57;;;;;;;4.10;3.80;;;;;;;;;;5013875;28;20227;-69
2023/06/12 15:59:24;;;;;;;3.85;3.60;;;;;;;;;;5013884;28;20208;-69
2023/06/12 16:01:57;;;;;;;3.60;3.40;;;;;;;;;;5013626;28;20259;-69
2023/06/12 16:04:26;;;;;;;4.10;3.80;;;;;;;;;;5013624;28;20272;-68
2023/06/12 16:06:53;;;;;;;4.50;4.10;;;;;;;;;;5013501;28;20201;-69
2023/06/12 16:09:21;;;;;;;4.20;3.90;;;;;;;;;;5013579;28;20189;-69
2023/06/12 16:11:48;;;;;;;4.13;3.88;;;;;;;;;;5016688;28;20229;-69
2023/06/12 16:14:15;;;;;;;4.55;3.95;;;;;;;;;;5017138;28;20201;-69
2023/06/12 16:16:42;;;;;;;3.83;3.53;;;;;;;;;;5017228;28;20215;-69
2023/06/12 16:19:10;;;;;;;4.38;4.07;;;;;;;;;;5017221;28;20205;-69
2023/06/12 16:21:38;;;;;;;4.25;3.75;;;;;;;;;;5017107;28;20613;-68
2023/06/12 16:24:05;;;;;;;6.60;4.85;;;;;;;;;;5016869;28;20669;-69
2023/06/12 16:26:32;;;;;;;4.70;4.30;;;;;;;;;;5016748;28;20201;-68
2023/06/12 16:28:59;;;;;;;4.50;4.20;;;;;;;;;;5017176;28;20209;-67
2023/06/12 16:31:26;;;;;;;5.15;4.30;;;;;;;;;;5016856;28;20232;-67
2023/06/12 16:33:53;;;;;;;3.95;3.65;;;;;;;;;;5016899;28;20202;-68
2023/06/12 16:36:21;;;;;;;4.13;3.88;;;;;;;;;;5016944;28;20201;-68
2023/06/12 16:38:49;;;;;;;4.55;4.20;;;;;;;;;;5016441;28;20699;-68
2023/06/12 16:41:16;;;;;;;4.68;4.20;;;;;;;;;;5016947;28;20248;-68
2023/06/12 16:43:43;;;;;;;4.40;4.05;;;;;;;;;;5016703;28;20584;-68
2023/06/12 16:46:13;;;;;;;5.45;4.45;;;;;;;;;;5016802;28;20228;-68
2023/06/12 16:48:40;;;;;;;4.80;4.32;;;;;;;;;;5016620;28;20210;-68
2023/06/12 16:51:12;;;;;;;4.45;4.05;;;;;;;;;;5016768;28;20260;-69
2023/06/12 16:53:39;;;;;;;6.13;4.65;;;;;;;;;;5016272;28;20700;-68
2023/06/12 16:56:08;;;;;;;7.93;4.68;;;;;;;;;;5016568;28;20197;-67
2023/06/12 16:58:35;;;;;;;4.80;4.13;;;;;;;;;;5016236;28;20194;-66
2023/06/12 17:01:02;;;;;;;4.65;4.22;;;;;;;;;;5016308;28;20232;-67
2023/06/12 17:03:30;;;;;;;4.40;4.00;;;;;;;;;;5016942;28;20204;-67
2023/06/12 17:05:57;;;;;;;4.80;4.40;;;;;;;;;;5019152;28;20238;-67
2023/06/12 17:08:24;;;;;;;5.95;4.03;;;;;;;;;;5020028;28;20233;-67
2023/06/12 17:10:52;;;;;;;4.65;4.15;;;;;;;;;;5018900;28;20256;-67
2023/06/12 17:13:21;;;;;;;4.45;3.90;;;;;;;;;;5019703;28;20316;-67
2023/06/12 17:15:50;;;;;;;4.65;4.30;;;;;;;;;;5018574;28;20216;-68
2023/06/12 17:18:17;;;;;;;5.15;3.85;;;;;;;;;;5018879;28;20198;-68
2023/06/12 17:20:44;;;;;;;4.63;4.30;;;;;;;;;;5019515;28;20225;-68
2023/06/12 17:23:12;;;;;;;5.82;4.72;;;;;;;;;;5018958;28;20213;-69
2023/06/12 17:25:40;;;;;;;5.70;5.13;;;;;;;;;;5020062;28;20212;-69
2023/06/12 17:28:07;;;;;;;4.78;4.40;;;;;;;;;;5020681;28;20217;-69
2023/06/12 17:30:36;;;;;;;5.75;4.20;;;;;;;;;;5018594;28;20245;-69
2023/06/12 17:33:04;;;;;;;6.32;4.85;;;;;;;;;;5015894;28;20201;-69
2023/06/12 17:35:31;;;;;;;4.68;4.10;;;;;;;;;;5016034;28;20201;-69
2023/06/12 17:37:58;;;;;;;4.28;3.97;;;;;;;;;;5016108;28;20205;-69
2023/06/12 17:40:25;;;;;;;4.55;3.70;;;;;;;;;;5015646;28;20201;-69
2023/06/12 17:42:52;;;;;;;4.00;3.70;;;;;;;;;;5015411;28;20692;-70
2023/06/12 17:45:19;;;;;;;3.80;3.53;;;;;;;;;;5015376;28;20672;-70
2023/06/12 17:47:50;;;;;;;3.95;3.65;;;;;;;;;;5015512;28;20222;-70
2023/06/12 17:50:17;;;;;;;4.05;3.25;;;;;;;;;;5015917;28;20197;-68
2023/06/12 17:52:44;;;;;;;3.28;3.08;;;;;;;;;;5015628;28;20205;-68
2023/06/12 17:55:11;;;;;;;4.20;3.60;;;;;;;;;;5015330;28;20213;-68
2023/06/12 17:57:38;;;;;;;4.05;3.75;;;;;;;;;;5015511;28;20206;-67
2023/06/12 18:00:06;;;;;;;4.65;3.88;;;;;;;;;;5015182;28;20202;-67
2023/06/12 18:02:33;;;;;;;4.35;3.95;;;;;;;;;;5015877;28;20222;-67
2023/06/12 18:05:01;;;;;;;3.83;3.63;;;;;;;;;;5014704;28;20664;-67
2023/06/12 18:07:28;;;;;;;4.45;3.72;;;;;;;;;;5014645;28;20212;-68
2023/06/12 18:09:55;;;;;;;3.72;3.53;;;;;;;;;;5014921;28;20202;-69
2023/06/12 18:12:22;;;;;;;4.00;3.70;;;;;;;;;;5014474;28;20229;-68
2023/06/12 18:14:49;;;;;;;4.60;3.75;;;;;;;;;;5014596;28;20664;-68
2023/06/12 18:17:16;;;;;;;3.90;3.60;;;;;;;;;;5014862;28;20205;-68
2023/06/12 18:19:43;;;;;;;4.43;3.42;;;;;;;;;;5014946;28;20197;-68
2023/06/12 18:22:12;;;;;;;3.47;3.25;;;;;;;;;;5014778;28;20217;-68
2023/06/12 18:24:39;;;;;;;3.75;3.50;;;;;;;;;;5014716;28;20206;-68
2023/06/12 18:27:06;;;;;;;3.55;3.20;;;;;;;;;;5014679;28;20204;-68
2023/06/12 18:29:33;;;;;;;3.55;3.35;;;;;;;;;;5014596;28;20225;-69
2023/06/12 18:32:00;;;;;;;3.60;3.30;;;;;;;;;;5014553;28;20244;-69
2023/06/12 18:34:27;;;;;;;4.10;3.88;;;;;;;;;;5014335;28;20201;-68
2023/06/12 18:36:54;;;;;;;3.30;3.10;;;;;;;;;;5014303;28;20657;-68